WetterOnline ( https://www.wetteronline.de )

Wetter aktuell Bad Neustadt/Saale

Aktuelles Wetter: Bad Kissingen (266m)

6-stündlich | Neueste Meldungen
Ortszeit Temperatur Wetter
Mo, 15.07. 20:00 19.3° C leicht bewölkt
Mo, 15.07. 14:00 22.0° C leicht bewölkt
Mo, 15.07. 8:00 13.5° C wolkenlos
Mo, 15.07. 2:00 13.0° C bewölkt
So, 14.07. 20:00 17.3° C leicht bewölkt
So, 14.07. 14:00 17.5° C bedeckt
So, 14.07. 8:00 13.5° C bedeckt
So, 14.07. 2:00 14.1° C bedeckt
Ortszeit Temperatur Wetter
Mo, 15.07. 22:30 14.4° C wolkenlos
Mo, 15.07. 22:20 14.4° C wolkenlos
Mo, 15.07. 22:10 14.5° C fast wolkenlos
Mo, 15.07. 22:00 14.9° C leicht bewölkt
Mo, 15.07. 21:50 14.9° C leicht bewölkt
Mo, 15.07. 21:40 15.2° C fast wolkenlos
Mo, 15.07. 21:30 16.3° C leicht bewölkt
Mo, 15.07. 21:00 17.3° C wolkig
Mo, 15.07. 20:30 18.5° C bedeckt
Mo, 15.07. 20:00 19.3° C leicht bewölkt
Mo, 15.07. 19:30 20.0° C wolkig
Ortszeit Relative Feuchte Sichtweite
Mo, 15.07. 20:00 57% >70 km
Mo, 15.07. 14:00 47% >70 km
Mo, 15.07. 8:00 78% 60 km
Mo, 15.07. 2:00 82% >70 km
So, 14.07. 20:00 62% >70 km
So, 14.07. 14:00 61% >70 km
So, 14.07. 8:00 96% 23 km
So, 14.07. 2:00 95% 40 km
Ortszeit Relative Feuchte Sichtweite
Mo, 15.07. 22:30 75% 50 km
Mo, 15.07. 22:20 75% -
Mo, 15.07. 22:10 74% -
Mo, 15.07. 22:00 73% 60 km
Mo, 15.07. 21:50 73% -
Mo, 15.07. 21:40 72% -
Mo, 15.07. 21:30 68% 50 km
Mo, 15.07. 21:00 63% 55 km
Mo, 15.07. 20:30 60% 60 km
Mo, 15.07. 20:00 57% >70 km
Mo, 15.07. 19:30 54% >70 km
Ortszeit Niederschlagsmenge Niederschlagsart
Mo, 15.07. 20:00 0.0 l/m2 in 12 Std. -
Mo, 15.07. 14:00 0.0 l/m2 in 6 Std. -
Mo, 15.07. 8:00 0.0 l/m2 in 12 Std. -
Mo, 15.07. 2:00 0.0 l/m2 in 6 Std. -
So, 14.07. 20:00 0.0 l/m2 in 12 Std. -
So, 14.07. 14:00 0.0 l/m2 in 6 Std. -
So, 14.07. 8:00 0.1 l/m2 in 12 Std. -
So, 14.07. 2:00 0.1 l/m2 in 6 Std. Regen
Ortszeit Niederschlagsmenge Niederschlagsart
Mo, 15.07. 22:30 0.0 l/m2 in 1 Std. -
Mo, 15.07. 22:20 keine Meldung -
Mo, 15.07. 22:10 keine Meldung -
Mo, 15.07. 22:00 0.0 l/m2 in 1 Std. -
Mo, 15.07. 21:50 keine Meldung -
Mo, 15.07. 21:40 keine Meldung -
Mo, 15.07. 21:30 0.0 l/m2 in 1 Std. -
Mo, 15.07. 21:00 0.0 l/m2 in 1 Std. -
Mo, 15.07. 20:30 0.0 l/m2 in 1 Std. -
Mo, 15.07. 20:00 0.0 l/m2 in 1 Std. -
Mo, 15.07. 19:30 0.0 l/m2 in 1 Std. -
Ortszeit Stärke Spitze Richtung
km/h Bft. km/h Grad Sektor
Mo, 15.07. 20:00 9 2 28 330° NW
Mo, 15.07. 14:00 7 2 22 320° NW
Mo, 15.07. 8:00 4 1 11 340° N
Mo, 15.07. 2:00 6 1 28 10° N
So, 14.07. 20:00 14 3 29 10° N
So, 14.07. 14:00 11 2 22 20° N
So, 14.07. 8:00 2 1 7 50° NO
So, 14.07. 2:00 4 1 25 140° SO
Ortszeit Stärke Spitze Richtung
km/h Bft. km/h Grad Sektor
Mo, 15.07. 22:30 7 2 14 40° NO
Mo, 15.07. 22:20 7 2 - 40° NO
Mo, 15.07. 22:10 9 2 - 50° NO
Mo, 15.07. 22:00 7 2 18 60° NO
Mo, 15.07. 21:50 7 2 - 60° NO
Mo, 15.07. 21:40 7 2 - 60° NO
Mo, 15.07. 21:30 4 1 18 20° N
Mo, 15.07. 21:00 11 2 22 330° NW
Mo, 15.07. 20:30 7 2 13 350° N
Mo, 15.07. 20:00 9 2 20 330° NW
Mo, 15.07. 19:30 14 3 22 300° NW
Ortszeit Untergrenze Bedeckung Gattung
total tief tief mittel hoch
Mo, 15.07. 20:00 7200 m 8/8 0/8 - - -
Mo, 15.07. 14:00 1320 m 3/8 3/8 - - -
Mo, 15.07. 8:00 - 0/8 0/8 - - -
Mo, 15.07. 2:00 1470 m 7/8 7/8 - - -
So, 14.07. 20:00 930 m 2/8 2/8 - - -
So, 14.07. 14:00 960 m 8/8 8/8 - - -
So, 14.07. 8:00 450 m 8/8 8/8 - - -
So, 14.07. 2:00 1800 m 8/8 8/8 - - -
Ortszeit Bedeckungsgrad in Achtel und Wolkenuntergrenze
Mo, 15.07. 22:30 keine Wolken
Mo, 15.07. 22:20 keine Wolken
Mo, 15.07. 22:10 1(9000m)
Mo, 15.07. 22:00 3(9000m)
Mo, 15.07. 21:50 3(9000m)
Mo, 15.07. 21:40 2(8700m)
Mo, 15.07. 21:30 6(8700m) 6(9000m)
Mo, 15.07. 21:00 2(6300m) 8(8700m) 8(10500m)
Mo, 15.07. 20:30 8(6600m) 8(9000m) 8(9000m)
Mo, 15.07. 20:00 8(7200m) 8(9000m) 8(10500m)
Mo, 15.07. 19:30 8(7500m) 8(8700m) 8(10500m)
Ortszeit Luftdruck NN (hPa) Tendenz (hPa in 3 Std.)
Mo, 15.07. 20:00 1016 + 0,2
Mo, 15.07. 14:00 1016 - 0,8
Mo, 15.07. 8:00 1018 + 0,4
Mo, 15.07. 2:00 1018 + 0,1
So, 14.07. 20:00 1017 + 0,2
So, 14.07. 14:00 1017 - 0,3
So, 14.07. 8:00 1017 + 0,1
So, 14.07. 2:00 1018 - 0,3
Ortszeit Luftdruck NN (hPa) Tendenz (hPa in 3 Std.)
Mo, 15.07. 22:30 1018 + 0,9
Mo, 15.07. 22:20 1018 keine Meldung
Mo, 15.07. 22:10 1018 keine Meldung
Mo, 15.07. 22:00 1017 + 0,8
Mo, 15.07. 21:50 1017 keine Meldung
Mo, 15.07. 21:40 1017 keine Meldung
Mo, 15.07. 21:30 1017 + 0,6
Mo, 15.07. 21:00 1017 + 0,5
Mo, 15.07. 20:30 1016 + 0,4
Mo, 15.07. 20:00 1016 + 0,2
Mo, 15.07. 19:30 1016 - 0,1
Ortszeit Schneehöhe (cm)
Mo, 15.07. 20:00 -
Mo, 15.07. 14:00 -
Mo, 15.07. 8:00 -
Mo, 15.07. 2:00 -
So, 14.07. 20:00 -
So, 14.07. 14:00 -
So, 14.07. 8:00 -
So, 14.07. 2:00 -
Ortszeit Schneehöhe (cm)
Mo, 15.07. 22:30 -
Mo, 15.07. 22:20 -
Mo, 15.07. 22:10 -
Mo, 15.07. 22:00 -
Mo, 15.07. 21:50 -
Mo, 15.07. 21:40 -
Mo, 15.07. 21:30 -
Mo, 15.07. 21:00 -
Mo, 15.07. 20:30 -
Mo, 15.07. 20:00 -
Mo, 15.07. 19:30 -
Link zu dieser Seite / Seite empfehlen

Das Wetter in ...